Time;durP1;ratioP1;P1;durP2;ratioP2;P2;SDS_P1;SDS_P2;PMS_P1;PMS_P2;Temp;Humidity;BMP_temperature;BMP_pressure;BME280_temperature;BME280_humidity;BME280_pressure;Samples;Min_cycle;Max_cycle;Signal;HPM_P1;HPM_P2
2023/01/15 00:00:57;;;;;;;;;;;;;;;17.18;65.59;99539.63;2080112;28;20404;-75
2023/01/15 00:02:01;;;;;;;;;;;;;;;17.18;65.35;99538.84;2077424;28;19933;-75
2023/01/15 00:03:03;;;;;;;;;;;;;;;17.17;65.47;99540.03;2075274;28;20008;-75
2023/01/15 00:04:07;;;;;;;;;;;;;;;17.17;65.51;99534.59;2084804;28;19925;-74
2023/01/15 00:05:08;;;;;;;;;;;;;;;17.11;65.78;99526.09;2085957;28;19933;-76
2023/01/15 00:06:11;;;;;;;;;;;;;;;17.16;65.81;99535.75;2076082;28;19975;-75
2023/01/15 00:07:13;;;;;;;;;;;;;;;17.14;65.53;99525.25;2070148;28;19941;-76
2023/01/15 00:08:16;;;;;;;;;;;;;;;17.13;65.70;99534.66;2071546;28;20637;-74
2023/01/15 00:09:19;;;;;;;;;;;;;;;17.14;65.74;99527.25;2075733;28;19933;-76
2023/01/15 00:10:21;;;;;;;;;;;;;;;17.13;65.64;99520.22;2076497;28;19929;-75
2023/01/15 00:11:24;;;;;;;;;;;;;;;17.12;65.74;99524.16;2068772;28;19972;-76
2023/01/15 00:12:26;;;;;;;;;;;;;;;17.11;65.79;99528.06;2072319;28;20015;-76
2023/01/15 00:13:29;;;;;;;;;;;;;;;17.11;65.89;99533.53;2068793;28;19929;-76
2023/01/15 00:14:31;;;;;;;;;;;;;;;17.10;65.89;99521.06;2068558;28;20389;-76
2023/01/15 00:15:33;;;;;;;;;;;;;;;17.08;65.86;99531.59;2070559;28;20388;-76
2023/01/15 00:16:36;;;;;;;;;;;;;;;17.08;65.81;99528.88;2070935;28;19971;-76
2023/01/15 00:17:39;;;;;;;;;;;;;;;17.08;66.24;99531.59;2080474;28;19940;-76
2023/01/15 00:18:42;;;;;;;;;;;;;;;17.07;66.01;99525.41;2073356;28;19929;-76
2023/01/15 00:19:43;;;;;;;;;;;;;;;17.07;66.33;99524.63;2068743;28;19929;-76
2023/01/15 00:20:46;;;;;;;;;;;;;;;17.06;65.78;99518.38;2081096;28;19925;-76
2023/01/15 00:21:48;;;;;;;;;;;;;;;17.04;66.05;99520.78;2077270;28;19982;-77
2023/01/15 00:22:50;;;;;;;;;;;;;;;17.04;65.97;99528.97;2079415;28;19940;-76
2023/01/15 00:27:55;;;;;;;;;;;;;;;17.01;65.96;99532.53;2077491;28;19925;-76
2023/01/15 00:28:57;;;;;;;;;;;;;;;17.02;66.27;99527.81;2078629;28;19936;-76
2023/01/15 00:29:59;;;;;;;;;;;;;;;17.00;66.01;99533.69;2080390;28;19929;-75
2023/01/15 00:31:02;;;;;;;;;;;;;;;16.99;66.31;99532.16;2076402;28;19936;-75
2023/01/15 00:32:05;;;;;;;;;;;;;;;16.99;66.29;99531.38;2075827;28;19933;-75
2023/01/15 00:33:08;;;;;;;;;;;;;;;16.99;66.61;99531.38;2077895;28;19971;-76
2023/01/15 00:34:11;;;;;;;;;;;;;;;16.98;66.33;99535.31;2078639;28;20358;-77
2023/01/15 00:35:13;;;;;;;;;;;;;;;16.98;66.43;99540.75;2074887;28;19936;-76
2023/01/15 00:36:16;;;;;;;;;;;;;;;16.97;66.32;99539.19;2070944;28;19929;-76
2023/01/15 00:37:19;;;;;;;;;;;;;;;16.97;66.40;99542.69;2075344;28;19934;-76
2023/01/15 00:38:21;;;;;;;;;;;;;;;16.97;66.32;99544.66;2076777;28;19966;-75
2023/01/15 00:39:23;;;;;;;;;;;;;;;16.96;66.34;99540.38;2076996;28;20926;-76
2023/01/15 00:40:26;;;;;;;;;;;;;;;16.94;66.32;99538.06;2076177;28;19925;-76
2023/01/15 00:41:28;;;;;;;;;;;;;;;16.95;66.54;99544.31;2078295;28;20035;-75
2023/01/15 00:42:30;;;;;;;;;;;;;;;16.95;66.44;99542.34;2081092;28;19926;-76
2023/01/15 00:43:33;;;;;;;;;;;;;;;16.94;66.49;99540.03;2079678;28;19925;-74
2023/01/15 00:44:34;;;;;;;;;;;;;;;16.95;66.25;99541.59;2082161;28;20385;-75
2023/01/15 00:45:37;;;;;;;;;;;;;;;16.94;66.57;99540.03;2084642;28;19929;-75
2023/01/15 00:46:42;;;;;;;;;;;;;;;16.92;66.32;99537.72;2082568;28;19971;-75
2023/01/15 00:47:46;;;;;;;;;;;;;;;16.93;66.54;99543.94;2079550;28;19932;-74
2023/01/15 00:48:50;;;;;;;;;;;;;;;16.92;66.05;99536.97;2082398;28;19929;-74
2023/01/15 00:49:52;;;;;;;;;;;;;;;16.92;66.60;99545.16;2079365;28;20343;-74
2023/01/15 00:50:54;;;;;;;;;;;;;;;16.91;66.61;99532.69;2077745;28;19929;-75
2023/01/15 00:51:57;;;;;;;;;;;;;;;16.91;66.44;99536.19;2086757;28;20277;-75
2023/01/15 00:52:59;;;;;;;;;;;;;;;16.91;66.38;99532.69;2076480;28;19968;-75
2023/01/15 00:54:02;;;;;;;;;;;;;;;16.90;66.55;99528.41;2070531;28;19940;-76
2023/01/15 00:55:05;;;;;;;;;;;;;;;16.90;66.58;99533.88;2079161;28;19929;-75
2023/01/15 00:56:08;;;;;;;;;;;;;;;16.89;66.71;99532.31;2079738;28;19940;-75
2023/01/15 00:57:11;;;;;;;;;;;;;;;16.88;66.56;99531.56;2075686;28;19929;-74
2023/01/15 00:58:13;;;;;;;;;;;;;;;16.88;66.55;99531.56;2069887;28;20471;-74
2023/01/15 00:59:16;;;;;;;;;;;;;;;16.89;66.76;99529.59;2079459;28;19933;-75
2023/01/15 01:00:17;;;;;;;;;;;;;;;16.88;66.60;99530.78;2078658;28;19925;-76
2023/01/15 01:01:21;;;;;;;;;;;;;;;16.88;66.49;99530.78;2075649;28;19936;-75
2023/01/15 01:02:23;;;;;;;;;;;;;;;16.88;66.70;99528.06;2079834;28;19944;-75
2023/01/15 01:03:26;;;;;;;;;;;;;;;16.87;66.53;99529.25;2084149;28;19928;-75
2023/01/15 01:04:29;;;;;;;;;;;;;;;16.87;66.63;99540.91;2076971;28;19936;-76
2023/01/15 01:05:32;;;;;;;;;;;;;;;16.87;66.97;99534.69;2066972;28;19984;-75
2023/01/15 01:06:34;;;;;;;;;;;;;;;16.86;66.81;99538.59;2073026;28;20013;-75
2023/01/15 01:07:36;;;;;;;;;;;;;;;16.86;66.49;99533.16;2071695;28;20384;-74
2023/01/15 01:08:38;;;;;;;;;;;;;;;16.85;66.66;99534.34;2069548;28;19933;-74
2023/01/15 01:09:41;;;;;;;;;;;;;;;16.84;66.54;99524.63;2076275;28;19937;-74
2023/01/15 01:10:43;;;;;;;;;;;;;;;16.85;66.77;99528.88;2079871;28;20296;-75
2023/01/15 01:11:46;;;;;;;;;;;;;;;16.84;66.61;99519.94;2075218;28;20361;-75
2023/01/15 01:12:50;;;;;;;;;;;;;;;16.83;66.44;99531.25;2079405;28;19929;-74
2023/01/15 01:13:53;;;;;;;;;;;;;;;16.83;66.40;99523.84;2078300;28;19929;-74
2023/01/15 01:14:55;;;;;;;;;;;;;;;16.83;66.75;99523.06;2080067;28;19933;-75
2023/01/15 01:15:59;;;;;;;;;;;;;;;16.82;66.96;99516.88;2071632;28;20328;-75
2023/01/15 01:17:01;;;;;;;;;;;;;;;16.82;66.79;99522.31;2061137;28;19930;-75
2023/01/15 01:18:04;;;;;;;;;;;;;;;16.82;66.83;99527.00;2072819;28;20550;-74
2023/01/15 01:19:08;;;;;;;;;;;;;;;16.81;66.78;99525.47;2078147;28;20020;-75
2023/01/15 01:20:14;;;;;;;;;;;;;;;16.81;66.93;99530.91;2084727;28;19975;-74
2023/01/15 01:21:15;;;;;;;;;;;;;;;16.80;66.93;99530.13;2092095;28;19932;-75
2023/01/15 01:22:18;;;;;;;;;;;;;;;16.80;66.89;99529.34;2087751;28;19928;-77
2023/01/15 01:23:21;;;;;;;;;;;;;;;16.81;66.87;99530.91;2076168;28;20439;-75
2023/01/15 01:24:24;;;;;;;;;;;;;;;16.80;66.87;99529.34;2071189;28;19937;-74
2023/01/15 01:25:26;;;;;;;;;;;;;;;16.79;66.90;99528.56;2077917;28;19929;-74
2023/01/15 01:26:29;;;;;;;;;;;;;;;16.80;66.85;99526.63;2076412;28;19936;-74
2023/01/15 01:27:31;;;;;;;;;;;;;;;16.79;66.87;99533.28;2065156;28;19933;-75
2023/01/15 01:28:34;;;;;;;;;;;;;;;16.79;66.81;99530.53;2070515;28;20417;-75
2023/01/15 01:29:36;;;;;;;;;;;;;;;16.79;66.73;99519.66;2070492;28;19925;-75
2023/01/15 01:30:39;;;;;;;;;;;;;;;16.78;67.04;99528.97;2070473;28;19930;-75
2023/01/15 01:31:41;;;;;;;;;;;;;;;16.78;67.04;99520.81;2085309;28;19932;-75
2023/01/15 01:32:45;;;;;;;;;;;;;;;16.77;66.77;99525.50;2079816;28;19983;-75
2023/01/15 01:33:47;;;;;;;;;;;;;;;16.77;66.93;99519.28;2080622;28;19936;-75
2023/01/15 01:34:50;;;;;;;;;;;;;;;16.78;67.11;99523.53;2071110;28;20036;-75
2023/01/15 01:35:53;;;;;;;;;;;;;;;16.76;66.92;99515.03;2072741;28;19993;-75
2023/01/15 01:36:56;;;;;;;;;;;;;;;16.76;67.02;99523.19;2073741;28;19929;-76
2023/01/15 01:37:57;;;;;;;;;;;;;;;16.75;66.65;99522.41;2074450;28;19925;-75
2023/01/15 01:39:01;;;;;;;;;;;;;;;16.76;67.12;99517.75;2072555;28;20063;-76
2023/01/15 01:40:05;;;;;;;;;;;;;;;16.77;67.15;99524.72;2074792;28;20439;-75
2023/01/15 01:41:06;;;;;;;;;;;;;;;16.75;67.15;99516.97;2085310;28;19999;-75
2023/01/15 01:42:11;;;;;;;;;;;;;;;16.75;67.06;99525.13;2076172;28;19933;-74
2023/01/15 01:43:18;;;;;;;;;;;;;;;16.74;66.93;99520.88;2090606;28;20385;-74
2023/01/15 01:44:39;;;;;;;;;;;;;;;16.74;67.12;99528.28;2089022;28;19956;-75
2023/01/15 01:45:41;;;;;;;;;;;;;;;16.74;67.15;99525.56;2081534;28;20000;-75
2023/01/15 01:46:44;;;;;;;;;;;;;;;16.74;67.03;99531.00;2078618;28;19941;-75
2023/01/15 01:47:46;;;;;;;;;;;;;;;16.74;66.85;99525.56;2075495;28;19929;-74
2023/01/15 01:48:50;;;;;;;;;;;;;;;16.73;67.01;99526.75;2085194;28;20514;-74
2023/01/15 01:49:53;;;;;;;;;;;;;;;16.72;67.25;99523.25;2076634;28;19951;-76
2023/01/15 01:50:59;;;;;;;;;;;;;;;16.73;66.92;99518.56;2084609;28;20310;-77
2023/01/15 01:52:03;;;;;;;;;;;;;;;16.72;66.97;99523.25;2073721;28;19926;-74
2023/01/15 01:53:08;;;;;;;;;;;;;;;16.72;67.14;99527.91;2071613;28;19929;-75
2023/01/15 01:54:13;;;;;;;;;;;;;;;16.72;67.17;99527.91;2080933;28;19925;-76
2023/01/15 01:55:17;;;;;;;;;;;;;;;16.70;67.62;99524.84;2073258;28;19936;-75
2023/01/15 01:56:22;;;;;;;;;;;;;;;16.70;67.19;99525.59;2061077;28;20676;-75
2023/01/15 01:57:25;;;;;;;;;;;;;;;16.70;67.04;99530.31;2069595;28;19939;-76
2023/01/15 01:58:29;;;;;;;;;;;;;;;16.70;67.07;99535.75;2081807;28;19925;-75
2023/01/15 01:59:33;;;;;;;;;;;;;;;16.70;67.13;99533.78;2073551;28;20025;-75
2023/01/15 02:00:35;;;;;;;;;;;;;;;16.70;66.93;99533.03;2068827;28;19952;-75
2023/01/15 02:01:38;;;;;;;;;;;;;;;16.69;67.15;99534.19;2074818;28;19983;-75
2023/01/15 02:02:42;;;;;;;;;;;;;;;16.69;67.01;99534.19;2083833;28;20008;-75
2023/01/15 02:03:45;;;;;;;;;;;;;;;16.68;67.15;99533.41;2079144;28;19983;-75
2023/01/15 02:04:47;;;;;;;;;;;;;;;16.69;67.25;99534.19;2076908;28;19925;-75
2023/01/15 02:05:52;;;;;;;;;;;;;;;16.68;67.31;99538.13;2077407;28;19925;-75
2023/01/15 02:06:56;;;;;;;;;;;;;;;16.68;67.23;99540.84;2077123;28;19928;-75
2023/01/15 02:07:59;;;;;;;;;;;;;;;16.68;67.22;99538.13;2079224;28;19929;-75
2023/01/15 02:09:02;;;;;;;;;;;;;;;16.67;67.01;99539.28;2068878;28;19926;-75
2023/01/15 02:10:06;;;;;;;;;;;;;;;16.66;67.19;99546.72;2080632;28;19952;-76
2023/01/15 02:11:11;;;;;;;;;;;;;;;16.66;67.24;99549.44;2080471;28;19967;-75
2023/01/15 02:12:18;;;;;;;;;;;;;;;16.67;67.29;99536.56;2071496;28;19933;-75
2023/01/15 02:13:24;;;;;;;;;;;;;;;16.67;67.17;99531.09;2077335;28;20016;-75
2023/01/15 02:14:30;;;;;;;;;;;;;;;16.66;67.04;99535.03;2077410;28;19955;-75
2023/01/15 02:15:34;;;;;;;;;;;;;;;16.65;67.18;99534.25;2078318;28;19945;-75
2023/01/15 02:16:40;;;;;;;;;;;;;;;16.65;67.40;99523.34;2080110;28;19992;-75
2023/01/15 02:17:45;;;;;;;;;;;;;;;16.64;67.09;99531.94;2080311;28;19925;-75
2023/01/15 02:18:50;;;;;;;;;;;;;;;16.65;67.38;99530.78;2070939;28;20347;-75
2023/01/15 02:20:00;;;;;;;;;;;;;;;16.66;67.36;99535.03;2072661;28;19944;-74
2023/01/15 02:21:07;;;;;;;;;;;;;;;16.64;67.24;99532.72;2072691;28;19972;-75
2023/01/15 02:22:13;;;;;;;;;;;;;;;16.63;67.45;99536.63;2066751;28;20020;-77
2023/01/15 02:23:23;;;;;;;;;;;;;;;16.64;67.07;99531.94;2069688;28;19941;-76
2023/01/15 02:24:30;;;;;;;;;;;;;;;16.63;67.33;99533.13;2067442;28;19934;-77
2023/01/15 02:25:43;;;;;;;;;;;;;;;16.63;67.19;99536.63;2063893;28;19941;-76
2023/01/15 02:26:54;;;;;;;;;;;;;;;16.62;67.18;99539.78;2073388;28;19977;-76
2023/01/15 02:28:01;;;;;;;;;;;;;;;16.62;67.34;99535.06;2080899;28;19976;-76
2023/01/15 02:29:06;;;;;;;;;;;;;;;16.62;67.12;99531.59;2076229;28;19929;-76
2023/01/15 02:30:13;;;;;;;;;;;;;;;16.62;67.28;99534.31;2067123;28;19992;-76
2023/01/15 02:31:29;;;;;;;;;;;;;;;16.62;67.34;99542.50;2072757;28;19925;-76
2023/01/15 02:32:37;;;;;;;;;;;;;;;16.62;67.45;99528.88;2078988;28;19931;-76
2023/01/15 02:33:42;;;;;;;;;;;;;;;16.61;67.22;99530.81;2085942;28;19937;-75
2023/01/15 02:34:48;;;;;;;;;;;;;;;16.61;67.29;99533.53;2072945;28;19976;-76
2023/01/15 02:35:53;;;;;;;;;;;;;;;16.61;67.45;99527.31;2065854;28;19984;-76
2023/01/15 02:37:01;;;;;;;;;;;;;;;16.60;67.54;99525.78;2064193;28;19980;-76
2023/01/15 02:38:05;;;;;;;;;;;;;;;16.60;67.55;99537.47;2061724;28;19934;-75
2023/01/15 02:39:11;;;;;;;;;;;;;;;16.60;67.21;99525.78;2070564;28;20389;-75
2023/01/15 02:40:13;;;;;;;;;;;;;;;16.60;67.28;99520.31;2067823;28;19926;-76
2023/01/15 02:41:18;;;;;;;;;;;;;;;16.59;67.42;99516.81;2066142;28;19933;-75
2023/01/15 02:42:24;;;;;;;;;;;;;;;16.59;67.44;99525.00;2070205;28;19940;-76
2023/01/15 02:43:28;;;;;;;;;;;;;;;16.58;67.46;99518.03;2078446;28;20358;-75
2023/01/15 02:44:35;;;;;;;;;;;;;;;16.59;67.18;99516.03;2083531;28;19952;-76
2023/01/15 02:45:41;;;;;;;;;;;;;;;16.58;67.27;99534.38;2080119;28;20983;-75
2023/01/15 02:46:49;;;;;;;;;;;;;;;16.58;67.49;99519.97;2072041;28;19952;-76
2023/01/15 02:47:53;;;;;;;;;;;;;;;16.58;67.47;99522.69;2070715;28;19937;-75
2023/01/15 02:48:57;;;;;;;;;;;;;;;16.57;67.25;99526.59;2073493;28;19933;-75
2023/01/15 02:50:06;;;;;;;;;;;;;;;16.57;67.40;99521.91;2064913;28;19926;-75
2023/01/15 02:51:14;;;;;;;;;;;;;;;16.57;67.61;99512.97;2067487;28;19964;-75
2023/01/15 02:52:20;;;;;;;;;;;;;;;16.57;67.62;99521.16;2066028;28;19929;-75
2023/01/15 02:53:24;;;;;;;;;;;;;;;16.56;67.47;99512.19;2060767;28;19930;-77
2023/01/15 02:54:31;;;;;;;;;;;;;;;16.56;67.34;99516.88;2062738;28;19988;-76
2023/01/15 02:55:35;;;;;;;;;;;;;;;16.56;67.46;99512.19;2063334;28;20116;-75
2023/01/15 02:56:40;;;;;;;;;;;;;;;16.55;67.51;99502.50;2073376;28;19933;-76
2023/01/15 02:57:45;;;;;;;;;;;;;;;16.55;67.40;99502.50;2070097;28;19950;-75
2023/01/15 02:58:53;;;;;;;;;;;;;;;16.56;67.40;99509.47;2068278;28;19972;-75
2023/01/15 02:59:57;;;;;;;;;;;;;;;16.55;67.56;99510.66;2062589;28;19934;-75
2023/01/15 03:01:02;;;;;;;;;;;;;;;16.55;67.43;99502.50;2064568;28;19993;-75
2023/01/15 03:02:08;;;;;;;;;;;;;;;16.55;67.52;99504.44;2073579;28;19991;-75
2023/01/15 03:03:14;;;;;;;;;;;;;;;16.54;67.50;99505.63;2072172;28;19926;-75
2023/01/15 03:04:20;;;;;;;;;;;;;;;16.54;67.61;99505.63;2079856;28;19934;-74
2023/01/15 03:05:25;;;;;;;;;;;;;;;16.55;67.56;99512.63;2077617;28;19929;-75
2023/01/15 03:06:31;;;;;;;;;;;;;;;16.54;67.37;99508.34;2082350;28;19931;-74
2023/01/15 03:07:37;;;;;;;;;;;;;;;16.53;67.53;99498.63;2071603;28;19995;-75
2023/01/15 03:08:41;;;;;;;;;;;;;;;16.54;67.77;99505.63;2062828;28;19961;-75
2023/01/15 03:09:44;;;;;;;;;;;;;;;16.53;67.59;99515.75;2073339;28;19971;-75
2023/01/15 03:10:47;;;;;;;;;;;;;;;16.53;67.58;99514.97;2068700;28;20368;-75
2023/01/15 03:11:59;;;;;;;;;;;;;;;16.52;67.50;99508.00;2072991;28;19952;-76
2023/01/15 03:13:04;;;;;;;;;;;;;;;16.53;67.38;99506.78;2073698;28;20398;-75
2023/01/15 03:14:19;;;;;;;;;;;;;;;16.52;67.49;99508.00;2074750;28;19952;-75
2023/01/15 03:16:33;;;;;;;;;;;;;;;16.52;67.48;99508.78;2079733;28;19929;-75
2023/01/15 03:16:46;;;;;;;;;;;;;;;16.52;67.53;99502.53;2079031;28;20304;-75
2023/01/15 03:17:53;;;;;;;;;;;;;;;16.52;67.62;99506.03;2079398;28;20260;-76
2023/01/15 03:19:00;;;;;;;;;;;;;;;16.51;67.33;99509.94;2072351;28;19933;-75
2023/01/15 03:20:06;;;;;;;;;;;;;;;16.51;67.44;99511.91;2080316;28;20028;-75
2023/01/15 03:21:10;;;;;;;;;;;;;;;16.50;67.33;99511.13;2078289;28;19929;-75
2023/01/15 03:22:17;;;;;;;;;;;;;;;16.51;67.55;99501.00;2077447;28;19929;-75
2023/01/15 03:23:22;;;;;;;;;;;;;;;16.50;67.58;99494.00;2072582;28;20308;-75
2023/01/15 03:24:28;;;;;;;;;;;;;;;16.50;67.54;99516.56;2080070;28;19985;-76
2023/01/15 03:25:34;;;;;;;;;;;;;;;16.51;67.58;99509.19;2077406;28;19933;-75
2023/01/15 03:26:37;;;;;;;;;;;;;;;16.48;67.68;99505.31;2066778;28;19937;-75
2023/01/15 03:27:39;;;;;;;;;;;;;;;16.50;67.46;99511.13;2064651;28;20483;-74
2023/01/15 03:28:44;;;;;;;;;;;;;;;16.49;67.41;99506.09;2069851;28;19992;-76
2023/01/15 03:29:49;;;;;;;;;;;;;;;16.50;67.54;99500.22;2078864;28;19961;-76
2023/01/15 03:30:52;;;;;;;;;;;;;;;16.49;67.53;99495.19;2067670;28;20427;-76
2023/01/15 03:31:55;;;;;;;;;;;;;;;16.48;67.29;99496.34;2063690;28;19929;-76
2023/01/15 03:32:57;;;;;;;;;;;;;;;16.49;67.73;99498.66;2074073;28;20012;-75
2023/01/15 03:34:00;;;;;;;;;;;;;;;16.49;67.76;99503.38;2080644;28;20488;-74
2023/01/15 03:35:05;;;;;;;;;;;;;;;16.48;67.73;99507.25;2079798;28;19929;-75
2023/01/15 03:36:12;;;;;;;;;;;;;;;16.47;67.48;99501.06;2071215;28;20008;-74
2023/01/15 03:37:23;;;;;;;;;;;;;;;16.47;67.63;99501.06;2071966;28;19934;-75
2023/01/15 03:38:27;;;;;;;;;;;;;;;16.47;67.73;99498.34;2080335;28;19929;-75
2023/01/15 03:39:29;;;;;;;;;;;;;;;16.48;67.51;99501.81;2074259;28;20393;-75
2023/01/15 03:40:47;;;;;;;;;;;;;;;16.48;67.42;99493.63;2071383;28;19998;-80
2023/01/15 03:41:59;;;;;;;;;;;;;;;16.47;67.62;99494.81;2068295;28;19972;-80
2023/01/15 03:44:28;;;;;;;;;;;;;;;16.47;67.74;99500.28;2077267;28;19980;-80
2023/01/15 03:45:32;;;;;;;;;;;;;;;16.46;67.46;99494.03;2081039;28;20909;-80
2023/01/15 03:46:49;;;;;;;;;;;;;;;16.46;67.59;99499.50;2074892;28;19933;-81
2023/01/15 03:47:54;;;;;;;;;;;;;;;16.46;67.52;99487.84;2057812;28;19930;-80
2023/01/15 03:49:02;;;;;;;;;;;;;;;16.46;67.47;99487.84;2069956;28;19937;-80
2023/01/15 03:50:10;;;;;;;;;;;;;;;16.46;67.68;99491.31;2069782;28;20687;-79
2023/01/15 03:51:19;;;;;;;;;;;;;;;16.45;67.80;99484.34;2075772;28;19969;-79
2023/01/15 03:52:27;;;;;;;;;;;;;;;16.44;67.43;99491.75;2082346;28;20462;-76
2023/01/15 03:53:32;;;;;;;;;;;;;;;16.44;67.49;99480.84;2072422;28;19929;-76
2023/01/15 03:54:43;;;;;;;;;;;;;;;16.44;67.68;99485.50;2073788;28;20487;-74
2023/01/15 03:55:52;;;;;;;;;;;;;;;16.44;67.84;99474.59;2069629;28;20028;-74
2023/01/15 03:56:59;;;;;;;;;;;;;;;16.43;67.78;99487.44;2065260;28;19929;-74
2023/01/15 03:58:05;;;;;;;;;;;;;;;16.44;67.66;99482.78;2071078;28;19979;-74
2023/01/15 03:59:15;;;;;;;;;;;;;;;16.43;67.54;99482.00;2083175;28;20019;-73
2023/01/15 04:00:30;;;;;;;;;;;;;;;16.42;67.52;99480.47;2076902;28;19929;-74
2023/01/15 04:01:36;;;;;;;;;;;;;;;16.42;67.70;99480.47;2067462;28;19930;-74
2023/01/15 04:02:40;;;;;;;;;;;;;;;16.43;67.49;99483.94;2064215;28;19930;-74
2023/01/15 04:03:42;;;;;;;;;;;;;;;16.43;67.41;99478.50;2069555;28;19925;-74
2023/01/15 04:04:47;;;;;;;;;;;;;;;16.42;67.70;99485.91;2072123;28;19930;-75
2023/01/15 04:05:49;;;;;;;;;;;;;;;16.42;67.71;99488.66;2069955;28;19930;-74
2023/01/15 04:06:54;;;;;;;;;;;;;;;16.41;67.88;99476.19;2062468;28;19972;-75
2023/01/15 04:07:57;;;;;;;;;;;;;;;16.41;67.58;99478.91;2069397;28;19929;-75
2023/01/15 04:09:00;;;;;;;;;;;;;;;16.41;67.71;99480.88;2070552;28;20330;-75
2023/01/15 04:10:07;;;;;;;;;;;;;;;16.41;67.56;99476.19;2072664;28;19929;-75
2023/01/15 04:11:10;;;;;;;;;;;;;;;16.41;67.91;99476.19;2069152;28;19940;-75
2023/01/15 04:12:21;;;;;;;;;;;;;;;16.41;67.59;99480.88;2066709;28;20015;-75
2023/01/15 04:13:22;;;;;;;;;;;;;;;16.39;67.85;99470.38;2070737;28;20413;-76
2023/01/15 04:15:01;;;;;;;;;;;;;;;16.41;67.64;99475.44;2074100;28;20247;-74
2023/01/15 04:16:05;;;;;;;;;;;;;;;16.40;67.44;99473.88;2078829;28;19933;-75
2023/01/15 04:17:07;;;;;;;;;;;;;;;16.40;67.51;99474.66;2078513;28;19933;-75
2023/01/15 04:18:09;;;;;;;;;;;;;;;16.39;67.63;99475.81;2073155;28;19984;-75
2023/01/15 04:19:11;;;;;;;;;;;;;;;16.39;67.57;99473.09;2078842;28;19959;-75
2023/01/15 04:20:22;;;;;;;;;;;;;;;16.38;67.57;99477.00;2077613;28;20719;-75
2023/01/15 04:21:24;;;;;;;;;;;;;;;16.39;67.55;99475.06;2066912;28;19930;-76
2023/01/15 04:22:27;;;;;;;;;;;;;;;16.39;67.54;99473.09;2071936;28;20441;-76
2023/01/15 04:23:28;;;;;;;;;;;;;;;16.38;67.51;99474.28;2078351;28;19983;-75
2023/01/15 04:24:31;;;;;;;;;;;;;;;16.38;67.65;99474.28;2078851;28;19963;-76
2023/01/15 04:25:33;;;;;;;;;;;;;;;16.38;67.57;99471.56;2078461;28;19929;-75
2023/01/15 04:26:35;;;;;;;;;;;;;;;16.38;67.49;99482.47;2067505;28;20363;-75
2023/01/15 04:27:37;;;;;;;;;;;;;;;16.37;67.54;99470.03;2072106;28;20025;-74
2023/01/15 04:28:39;;;;;;;;;;;;;;;16.37;67.53;99464.59;2078903;28;19937;-75
2023/01/15 04:29:41;;;;;;;;;;;;;;;16.37;67.61;99470.03;2078376;28;20044;-74
2023/01/15 04:30:45;;;;;;;;;;;;;;;16.36;67.60;99463.03;2077253;28;19936;-75
2023/01/15 04:31:51;;;;;;;;;;;;;;;16.37;67.81;99466.53;2080946;28;20412;-75
2023/01/15 04:32:54;;;;;;;;;;;;;;;16.37;67.74;99459.13;2077582;28;19925;-75
2023/01/15 04:33:55;;;;;;;;;;;;;;;16.37;67.64;99459.13;2076504;28;20013;-75
2023/01/15 04:34:58;;;;;;;;;;;;;;;16.36;67.52;99460.31;2070945;28;20369;-74
2023/01/15 04:36:00;;;;;;;;;;;;;;;16.36;67.63;99457.59;2073226;28;19929;-75
2023/01/15 04:37:03;;;;;;;;;;;;;;;16.35;67.62;99450.59;2076499;28;20035;-75
2023/01/15 04:38:04;;;;;;;;;;;;;;;16.36;67.57;99460.31;2074466;28;20002;-75
2023/01/15 04:39:07;;;;;;;;;;;;;;;16.36;67.54;99459.56;2070904;28;19934;-75
2023/01/15 04:44:05;;;;;;;;;;;;;;;16.36;67.80;99457.59;2078521;28;19976;-75
2023/01/15 04:44:15;;;;;;;;;;;;;;;16.35;67.69;99452.53;2078094;28;20003;-75
2023/01/15 04:45:17;;;;;;;;;;;;;;;16.36;67.51;99451.38;2076971;28;20044;-75
2023/01/15 04:46:20;;;;;;;;;;;;;;;16.34;67.72;99454.53;2078331;28;19940;-75
2023/01/15 04:47:24;;;;;;;;;;;;;;;16.35;67.78;99455.28;2074133;28;19929;-75
2023/01/15 04:48:26;;;;;;;;;;;;;;;16.35;67.55;99455.28;2072030;28;19988;-74
2023/01/15 04:49:29;;;;;;;;;;;;;;;16.34;67.69;99459.97;2072953;28;20354;-75
2023/01/15 04:50:30;;;;;;;;;;;;;;;16.34;67.79;99457.25;2084602;28;20351;-75
2023/01/15 04:51:33;;;;;;;;;;;;;;;16.34;67.60;99459.19;2087026;28;19928;-74
2023/01/15 04:52:36;;;;;;;;;;;;;;;16.34;67.77;99459.97;2083849;28;20033;-76
2023/01/15 04:53:38;;;;;;;;;;;;;;;16.34;67.69;99459.97;2077657;28;19936;-75
2023/01/15 04:54:40;;;;;;;;;;;;;;;16.34;67.77;99459.97;2061778;28;19930;-75
2023/01/15 04:55:42;;;;;;;;;;;;;;;16.34;67.67;99454.53;2071638;28;19929;-76
2023/01/15 04:56:46;;;;;;;;;;;;;;;16.33;67.70;99452.97;2078637;28;19933;-75
2023/01/15 04:57:48;;;;;;;;;;;;;;;16.32;67.80;99443.25;2079762;28;20424;-75
2023/01/15 04:58:50;;;;;;;;;;;;;;;16.33;67.65;99446.75;2080118;28;20102;-75
2023/01/15 04:59:52;;;;;;;;;;;;;;;16.33;67.65;99439.34;2082517;28;19936;-75
2023/01/15 05:00:55;;;;;;;;;;;;;;;16.32;67.80;99437.03;2077702;28;19980;-75
2023/01/15 05:01:57;;;;;;;;;;;;;;;16.32;67.23;99440.53;2069498;28;19929;-76
2023/01/15 05:03:08;;;;;;;;;;;;;;;16.32;67.52;99435.09;2083739;28;19925;-76
2023/01/15 05:04:10;;;;;;;;;;;;;;;16.32;67.56;99434.31;2079448;28;19929;-76
2023/01/15 05:05:12;;;;;;;;;;;;;;;16.32;67.58;99440.53;2070909;28;19933;-76
2023/01/15 05:06:16;;;;;;;;;;;;;;;16.32;67.48;99437.81;2072053;28;20659;-76
2023/01/15 05:07:19;;;;;;;;;;;;;;;16.32;67.79;99435.09;2072495;28;19984;-77
2023/01/15 05:08:20;;;;;;;;;;;;;;;16.32;67.75;99439.75;2075829;28;19933;-77
2023/01/15 05:09:23;;;;;;;;;;;;;;;16.32;67.74;99445.97;2088459;28;20348;-76
2023/01/15 05:10:25;;;;;;;;;;;;;;;16.32;67.48;99437.03;2085995;28;19929;-77
2023/01/15 05:11:29;;;;;;;;;;;;;;;16.31;67.56;99439.00;2071543;28;19929;-76
2023/01/15 05:12:31;;;;;;;;;;;;;;;16.31;67.86;99439.00;2079893;28;19929;-76
2023/01/15 05:13:34;;;;;;;;;;;;;;;16.31;67.65;99433.56;2085513;28;19925;-75
2023/01/15 05:14:36;;;;;;;;;;;;;;;16.31;67.53;99439.00;2076896;28;19976;-73
2023/01/15 05:15:39;;;;;;;;;;;;;;;16.30;67.50;99432.00;2070389;28;19965;-74
2023/01/15 05:16:42;;;;;;;;;;;;;;;16.31;67.64;99430.06;2071319;28;19945;-74
2023/01/15 05:17:44;;;;;;;;;;;;;;;16.31;67.48;99440.94;2071633;28;20422;-74
2023/01/15 05:18:48;;;;;;;;;;;;;;;16.30;67.67;99436.66;2073119;28;20317;-75
2023/01/15 05:19:50;;;;;;;;;;;;;;;16.30;67.55;99425.78;2079463;28;19929;-75
2023/01/15 05:20:52;;;;;;;;;;;;;;;16.29;67.69;99433.19;2080225;28;19925;-75
2023/01/15 05:21:55;;;;;;;;;;;;;;;16.29;67.63;99430.47;2084593;28;19936;-76
2023/01/15 05:22:57;;;;;;;;;;;;;;;16.29;67.45;99425.03;2086866;28;19924;-76
2023/01/15 05:24:01;;;;;;;;;;;;;;;16.29;67.39;99430.47;2079386;28;19933;-76
2023/01/15 05:25:03;;;;;;;;;;;;;;;16.29;67.57;99430.47;2080087;28;19963;-77
2023/01/15 05:26:06;;;;;;;;;;;;;;;16.29;67.62;99433.19;2082257;28;19975;-75
2023/01/15 05:27:07;;;;;;;;;;;;;;;16.30;67.57;99431.22;2073007;28;19929;-76
2023/01/15 05:28:10;;;;;;;;;;;;;;;16.29;67.63;99430.47;2064758;28;19956;-76
2023/01/15 05:29:13;;;;;;;;;;;;;;;16.28;67.77;99428.91;2070211;28;20413;-76
2023/01/15 05:30:15;;;;;;;;;;;;;;;16.29;67.49;99435.91;2072596;28;19929;-76
2023/01/15 05:31:18;;;;;;;;;;;;;;;16.28;67.80;99439.81;2072739;28;20000;-77
2023/01/15 05:32:21;;;;;;;;;;;;;;;16.29;67.57;99437.84;2087320;28;20027;-76
2023/01/15 05:33:23;;;;;;;;;;;;;;;16.28;67.48;99428.91;2086899;28;19982;-77
2023/01/15 05:34:27;;;;;;;;;;;;;;;16.28;67.70;99434.34;2081278;28;20024;-77
2023/01/15 05:35:29;;;;;;;;;;;;;;;16.28;67.75;99433.59;2079195;28;20372;-76
2023/01/15 05:36:32;;;;;;;;;;;;;;;16.27;67.46;99430.09;2079044;28;19930;-76
2023/01/15 05:37:34;;;;;;;;;;;;;;;16.28;67.37;99422.72;2088633;28;19932;-76
2023/01/15 05:38:36;;;;;;;;;;;;;;;16.27;67.54;99426.59;2085658;28;19925;-76
2023/01/15 05:39:39;;;;;;;;;;;;;;;16.27;67.49;99432.81;2073987;28;19929;-77
2023/01/15 05:40:41;;;;;;;;;;;;;;;16.27;67.54;99413.75;2079335;28;20337;-77
2023/01/15 05:41:50;;;;;;;;;;;;;;;16.27;67.57;99427.38;2078180;28;20012;-76
2023/01/15 05:42:52;;;;;;;;;;;;;;;16.27;67.61;99421.16;2080701;28;20012;-75
2023/01/15 05:43:55;;;;;;;;;;;;;;;16.26;67.45;99425.84;2077088;28;19929;-75